createdAt,value
2019-04-03T00:02:46.112Z,9.82
2019-04-03T00:07:40.039Z,9.76
2019-04-03T00:12:35.008Z,9.69
2019-04-03T00:17:28.994Z,9.67
2019-04-03T00:22:23.057Z,9.65
2019-04-03T00:27:17.161Z,9.48
2019-04-03T00:32:11.125Z,9.19
2019-04-03T00:37:05.110Z,9.19
2019-04-03T00:41:59.064Z,9.16
2019-04-03T00:46:53.818Z,9.10
2019-04-03T00:51:49.091Z,9.03
2019-04-03T00:56:43.057Z,9.08
2019-04-03T01:01:37.120Z,9.12
2019-04-03T01:06:31.144Z,9.09
2019-04-03T01:11:25.118Z,8.98
2019-04-03T01:16:19.209Z,8.98
2019-04-03T01:21:13.193Z,9.02
2019-04-03T01:26:09.334Z,8.86
2019-04-03T01:31:03.301Z,8.87
2019-04-03T01:35:57.293Z,8.77
2019-04-03T01:40:51.345Z,8.89
2019-04-03T01:45:45.308Z,8.89
2019-04-03T01:50:39.494Z,8.92
2019-04-03T01:55:34.498Z,8.91
2019-04-03T02:00:29.281Z,8.95
2019-04-03T02:05:23.227Z,8.97
2019-04-03T02:10:19.190Z,8.98
2019-04-03T02:15:13.315Z,8.86
2019-04-03T02:20:07.414Z,8.91
2019-04-03T02:25:02.181Z,8.93
2019-04-03T02:29:56.294Z,8.96
2019-04-03T02:34:50.272Z,9.02
2019-04-03T02:39:44.522Z,8.93
2019-04-03T02:44:38.631Z,8.87
2019-04-03T02:49:32.590Z,8.80
2019-04-03T02:54:28.663Z,8.70
2019-04-03T02:59:25.118Z,8.66
2019-04-03T03:04:21.456Z,8.76
2019-04-03T03:09:15.180Z,8.83
2019-04-03T03:14:10.199Z,8.73
2019-04-03T03:19:04.315Z,8.67
2019-04-03T03:23:59.374Z,8.63
2019-04-03T03:28:53.541Z,8.63
2019-04-03T03:33:47.613Z,8.64
2019-04-03T03:38:42.402Z,8.65
2019-04-03T03:43:38.289Z,8.62
2019-04-03T03:48:32.882Z,8.63
2019-04-03T03:53:26.940Z,8.65
2019-04-03T03:58:21.388Z,8.65
2019-04-03T04:03:15.470Z,8.71
2019-04-03T04:08:10.784Z,8.70
2019-04-03T04:13:05.812Z,8.70
2019-04-03T04:18:00.513Z,8.69
2019-04-03T04:22:55.121Z,8.64
2019-04-03T04:27:49.583Z,8.61
2019-04-03T04:32:45.591Z,8.61
2019-04-03T04:37:40.568Z,8.53
2019-04-03T04:42:35.358Z,8.58
2019-04-03T04:47:29.497Z,8.48
2019-04-03T04:52:23.467Z,8.44
2019-04-03T04:57:17.437Z,8.35
2019-04-03T05:02:11.559Z,8.43
2019-04-03T05:07:05.549Z,8.46
2019-04-03T05:11:59.891Z,8.46
2019-04-03T05:16:55.882Z,8.44
2019-04-03T05:21:50.804Z,8.39
2019-04-03T05:26:46.777Z,8.27
2019-04-03T05:31:40.884Z,8.19
2019-04-03T05:36:34.834Z,8.26
2019-04-03T05:41:28.793Z,8.15
2019-04-03T05:46:22.760Z,8.29
2019-04-03T05:51:16.929Z,8.35
2019-04-03T05:56:12.358Z,8.35
2019-04-03T06:01:07.358Z,8.29
2019-04-03T06:06:02.994Z,8.17
2019-04-03T06:10:57.270Z,8.01
2019-04-03T06:15:52.967Z,8.10
2019-04-03T06:20:47.337Z,8.25
2019-04-03T06:25:41.536Z,8.31
2019-04-03T06:30:35.537Z,8.32
2019-04-03T06:35:29.604Z,8.35
2019-04-03T06:40:23.595Z,8.38
2019-04-03T06:45:18.030Z,8.41
2019-04-03T06:50:13.306Z,8.22
2019-04-03T06:55:07.496Z,8.33
2019-04-03T07:00:01.904Z,8.53
2019-04-03T07:04:55.886Z,8.48
2019-04-03T07:09:50.831Z,8.45
2019-04-03T07:14:45.534Z,8.48
2019-04-03T07:19:40.216Z,8.48
2019-04-03T07:24:34.360Z,8.62
2019-04-03T07:29:28.488Z,8.81
2019-04-03T07:34:24.920Z,8.88
2019-04-03T07:39:19.860Z,8.88
2019-04-03T07:44:14.280Z,9.25
2019-04-03T07:49:09.048Z,9.51
2019-04-03T07:54:04.825Z,9.72
2019-04-03T07:58:59.020Z,9.47
2019-04-03T08:03:53.421Z,9.07
2019-04-03T08:08:50.415Z,8.88
2019-04-03T08:13:43.620Z,9.17
2019-04-03T08:18:37.668Z,9.27
2019-04-03T08:23:31.667Z,9.31
2019-04-03T08:28:28.046Z,9.36
2019-04-03T08:33:26.067Z,9.60
2019-04-03T08:38:17.374Z,9.88
2019-04-03T08:43:11.371Z,10.55
2019-04-03T08:48:06.366Z,10.89
2019-04-03T08:53:01.407Z,10.67
2019-04-03T08:57:55.965Z,10.66
2019-04-03T09:02:50.230Z,10.71
2019-04-03T09:07:44.307Z,10.39
2019-04-03T09:12:38.931Z,10.73
2019-04-03T09:17:34.047Z,10.70
2019-04-03T09:22:28.843Z,10.34
2019-04-03T09:27:23.048Z,10.23
2019-04-03T09:32:17.234Z,10.11
2019-04-03T09:37:11.509Z,10.72
2019-04-03T09:42:05.518Z,11.16
2019-04-03T09:47:01.148Z,10.81
2019-04-03T09:51:55.617Z,10.75
2019-04-03T09:56:57.841Z,10.47
2019-04-03T10:01:47.877Z,10.49
2019-04-03T10:06:41.676Z,11.02
2019-04-03T10:11:38.270Z,12.09
2019-04-03T10:16:34.922Z,12.83
2019-04-03T10:21:27.938Z,12.80
2019-04-03T10:26:22.072Z,12.33
2019-04-03T10:31:16.174Z,11.67
2019-04-03T10:36:11.801Z,11.80
2019-04-03T10:41:06.253Z,11.59
2019-04-03T10:46:00.638Z,11.30
2019-04-03T10:50:54.604Z,10.90
2019-04-03T10:55:48.694Z,11.42
2019-04-03T11:00:42.650Z,12.17
2019-04-03T11:05:36.734Z,12.54
2019-04-03T11:10:31.030Z,12.75
2019-04-03T11:15:25.119Z,13.45
2019-04-03T11:20:19.518Z,12.20
2019-04-03T11:25:15.244Z,12.70
2019-04-03T11:30:12.408Z,12.13
2019-04-03T11:35:07.673Z,11.62
2019-04-03T11:40:05.696Z,11.63
2019-04-03T11:44:59.831Z,12.87
2019-04-03T11:49:53.952Z,12.84
2019-04-03T11:54:48.214Z,12.54
2019-04-03T11:59:42.276Z,12.65
2019-04-03T12:04:36.413Z,12.58
2019-04-03T12:09:31.690Z,13.39
2019-04-03T12:14:26.349Z,12.87
2019-04-03T12:19:20.513Z,12.95
2019-04-03T12:24:14.959Z,12.60
2019-04-03T12:29:09.184Z,12.12
2019-04-03T12:34:05.174Z,11.80
2019-04-03T12:38:59.313Z,11.64
2019-04-03T12:43:53.306Z,11.43
2019-04-03T12:48:48.706Z,11.37
2019-04-03T12:53:43.539Z,11.49
2019-04-03T12:58:38.524Z,11.50
2019-04-03T13:03:35.694Z,11.41
2019-04-03T13:08:28.674Z,11.71
2019-04-03T13:13:22.663Z,12.29
2019-04-03T13:18:16.742Z,12.73
2019-04-03T13:23:12.476Z,12.70
2019-04-03T13:28:07.135Z,12.26
2019-04-03T13:33:06.080Z,11.72
2019-04-03T13:37:57.237Z,11.37
2019-04-03T13:42:51.698Z,11.36
2019-04-03T13:47:47.054Z,11.35
2019-04-03T13:52:45.833Z,11.16
2019-04-03T13:57:37.310Z,11.25
2019-04-03T14:02:31.924Z,11.25
2019-04-03T14:07:26.057Z,11.28
2019-04-03T14:12:20.214Z,11.60
2019-04-03T14:17:14.910Z,12.08
2019-04-03T14:22:09.204Z,12.51
2019-04-03T14:27:03.408Z,12.52
2019-04-03T14:31:57.645Z,12.22
2019-04-03T14:36:51.691Z,12.17
2019-04-03T14:41:45.682Z,11.98
2019-04-03T14:46:40.261Z,11.98
2019-04-03T14:51:34.371Z,11.99
2019-04-03T14:56:30.413Z,11.76
2019-04-03T15:01:24.457Z,12.07
2019-04-03T15:06:18.846Z,12.04
2019-04-03T15:11:13.145Z,11.89
2019-04-03T15:16:07.677Z,12.21
2019-04-03T15:21:02.006Z,11.82
2019-04-03T15:25:56.198Z,11.59
2019-04-03T15:30:50.642Z,11.60
2019-04-03T15:35:44.691Z,11.44
2019-04-03T15:40:38.850Z,11.24
2019-04-03T15:45:33.169Z,11.06
2019-04-03T15:50:28.559Z,11.01
2019-04-03T15:55:25.225Z,11.04
2019-04-03T16:00:22.844Z,10.88
2019-04-03T16:05:16.954Z,10.99
2019-04-03T16:10:11.231Z,10.93
2019-04-03T16:15:08.612Z,10.76
2019-04-03T16:20:03.985Z,10.76
2019-04-03T16:24:58.874Z,10.62
2019-04-03T16:29:52.926Z,10.54
2019-04-03T16:34:47.454Z,10.39
2019-04-03T16:39:41.513Z,10.27
2019-04-03T16:44:35.714Z,10.15
2019-04-03T16:49:29.684Z,10.15
2019-04-03T16:54:23.740Z,9.99
2019-04-03T16:59:17.982Z,9.96
2019-04-03T17:04:23.805Z,9.86
2019-04-03T17:09:07.960Z,9.72
2019-04-03T17:14:04.040Z,9.68
2019-04-03T17:18:58.317Z,9.56
2019-04-03T17:23:52.432Z,9.38
2019-04-03T17:28:46.629Z,9.28
2019-04-03T17:33:40.640Z,9.32
2019-04-03T17:38:34.746Z,9.24
2019-04-03T17:43:28.751Z,9.22
2019-04-03T17:48:24.881Z,9.25
2019-04-03T17:53:18.972Z,9.13
2019-04-03T17:58:13.090Z,9.03
2019-04-03T18:03:07.517Z,8.93
2019-04-03T18:08:01.515Z,8.90
2019-04-03T18:12:55.864Z,8.86
2019-04-03T18:17:50.001Z,8.77
2019-04-03T18:22:44.023Z,8.70
2019-04-03T18:27:38.274Z,8.68
2019-04-03T18:32:32.547Z,8.64
2019-04-03T18:37:26.947Z,8.60
2019-04-03T18:42:21.097Z,8.56
2019-04-03T18:47:15.279Z,8.52
2019-04-03T18:52:09.680Z,8.47
2019-04-03T18:57:03.799Z,8.47
2019-04-03T19:01:58.001Z,8.43
2019-04-03T19:06:52.129Z,8.39
2019-04-03T19:11:46.344Z,8.32
2019-04-03T19:16:45.246Z,8.27
2019-04-03T19:21:36.623Z,8.23
2019-04-03T19:26:31.782Z,8.23
2019-04-03T19:31:26.334Z,8.18
2019-04-03T19:36:20.591Z,8.20
2019-04-03T19:41:14.736Z,8.20
2019-04-03T19:46:08.762Z,8.17
2019-04-03T19:51:03.534Z,8.09
2019-04-03T19:55:57.579Z,8.05
2019-04-03T20:00:51.658Z,8.03
2019-04-03T20:05:45.866Z,8.00
2019-04-03T20:10:39.881Z,8.02
2019-04-03T20:15:36.748Z,7.99
2019-04-03T20:20:33.364Z,7.99
2019-04-03T20:25:25.884Z,7.96
2019-04-03T20:30:19.997Z,7.95
2019-04-03T20:35:14.117Z,7.87
2019-04-03T20:40:08.404Z,7.83
2019-04-03T20:45:04.856Z,7.76
2019-04-03T20:49:58.948Z,7.78
2019-04-03T20:54:53.803Z,7.73
2019-04-03T20:59:58.751Z,7.74
2019-04-03T21:04:46.482Z,7.76
2019-04-03T21:09:39.707Z,7.74
2019-04-03T21:14:33.744Z,7.66
2019-04-03T21:19:28.054Z,7.63
2019-04-03T21:24:22.019Z,7.61
2019-04-03T21:29:17.328Z,7.57
2019-04-03T21:34:11.506Z,7.51
2019-04-03T21:39:06.399Z,7.52
2019-04-03T21:44:00.548Z,7.49
2019-04-03T21:48:54.553Z,7.48
2019-04-03T21:53:48.541Z,7.44
2019-04-03T21:58:42.527Z,7.42
2019-04-03T22:03:36.521Z,7.37
2019-04-03T22:08:30.581Z,7.29
2019-04-03T22:13:24.684Z,7.24
2019-04-03T22:18:18.678Z,7.20
2019-04-03T22:23:12.675Z,7.19
2019-04-03T22:28:06.866Z,7.20
2019-04-03T22:33:00.847Z,7.17
2019-04-03T22:37:54.838Z,7.16
2019-04-03T22:42:48.865Z,7.18
2019-04-03T22:47:42.855Z,7.21
2019-04-03T22:52:39.641Z,7.11
2019-04-03T22:57:32.694Z,7.10
2019-04-03T23:02:26.642Z,7.13
2019-04-03T23:07:21.409Z,7.07
2019-04-03T23:12:15.436Z,7.03
2019-04-03T23:17:09.566Z,7.07
2019-04-03T23:22:03.627Z,7.03
2019-04-03T23:26:57.618Z,7.03
2019-04-03T23:31:51.596Z,6.93
2019-04-03T23:36:45.763Z,6.87
2019-04-03T23:41:39.823Z,6.88
2019-04-03T23:46:34.040Z,6.80
2019-04-03T23:51:28.164Z,6.79
2019-04-03T23:56:22.128Z,6.74
